createdAt,value
2017-09-22T00:01:15.383Z,80.20
2017-09-22T00:03:42.919Z,80.20
2017-09-22T00:06:10.450Z,80.00
2017-09-22T00:08:38.027Z,79.60
2017-09-22T00:11:05.751Z,79.70
2017-09-22T00:13:33.275Z,79.60
2017-09-22T00:16:00.826Z,79.70
2017-09-22T00:18:28.359Z,79.70
2017-09-22T00:20:55.891Z,79.70
2017-09-22T00:23:23.495Z,80.40
2017-09-22T00:25:51.023Z,80.00
2017-09-22T00:28:18.555Z,80.10
2017-09-22T00:30:46.112Z,80.20
2017-09-22T00:33:20.312Z,80.40
2017-09-22T00:44:52.908Z,80.30
2017-09-22T00:47:20.435Z,80.90
2017-09-22T00:49:47.967Z,81.30
2017-09-22T00:52:16.419Z,81.80
2017-09-22T00:54:43.952Z,81.30
2017-09-22T00:57:11.479Z,81.40
2017-09-22T00:59:39.022Z,81.30
2017-09-22T01:02:06.547Z,81.10
2017-09-22T01:04:34.084Z,80.80
2017-09-22T01:07:01.662Z,81.10
2017-09-22T01:09:29.190Z,80.90
2017-09-22T01:11:57.209Z,81.10
2017-09-22T01:14:24.780Z,81.00
2017-09-22T01:16:52.314Z,81.10
2017-09-22T01:19:19.921Z,81.50
2017-09-22T01:21:47.480Z,81.90
2017-09-22T01:24:17.252Z,81.40
2017-09-22T01:26:44.791Z,81.20
2017-09-22T01:29:14.060Z,81.20
2017-09-22T01:31:41.586Z,81.20
2017-09-22T01:34:09.116Z,81.40
2017-09-22T01:36:36.680Z,81.20
2017-09-22T01:39:04.220Z,81.30
2017-09-22T01:41:32.531Z,81.50
2017-09-22T01:44:00.097Z,81.40
2017-09-22T01:46:27.631Z,81.50
2017-09-22T01:48:55.167Z,81.50
2017-09-22T01:51:22.770Z,81.20
2017-09-22T01:53:50.302Z,81.40
2017-09-22T01:56:17.834Z,81.40
2017-09-22T01:58:45.387Z,81.50
2017-09-22T02:01:25.327Z,81.60
2017-09-22T02:04:51.527Z,81.80
2017-09-22T02:07:19.055Z,82.00
2017-09-22T02:09:46.585Z,82.50
2017-09-22T02:12:16.803Z,81.90
2017-09-22T02:14:44.335Z,81.90
2017-09-22T02:17:11.858Z,81.80
2017-09-22T02:19:39.443Z,81.90
2017-09-22T02:22:06.979Z,81.80
2017-09-22T02:24:35.278Z,82.20
2017-09-22T02:27:03.683Z,82.20
2017-09-22T02:29:31.219Z,82.20
2017-09-22T02:31:59.515Z,82.70
2017-09-22T02:34:27.099Z,82.70
2017-09-22T02:36:54.628Z,82.60
2017-09-22T02:39:22.159Z,82.80
2017-09-22T02:41:50.491Z,82.40
2017-09-22T02:44:18.019Z,82.30
2017-09-22T02:46:45.575Z,82.60
2017-09-22T02:49:15.410Z,82.40
2017-09-22T02:51:42.938Z,82.40
2017-09-22T02:54:10.476Z,82.30
2017-09-22T02:56:38.068Z,82.00
2017-09-22T02:59:05.604Z,81.60
2017-09-22T03:01:33.140Z,81.70
2017-09-22T03:04:00.700Z,81.70
2017-09-22T03:06:28.232Z,81.60
2017-09-22T03:08:55.758Z,81.50
2017-09-22T03:11:24.083Z,81.80
2017-09-22T03:13:51.884Z,81.80
2017-09-22T03:16:19.415Z,81.50
2017-09-22T03:18:46.994Z,81.60
2017-09-22T03:21:16.331Z,82.00
2017-09-22T03:23:43.868Z,82.10
2017-09-22T03:26:11.455Z,82.10
2017-09-22T03:28:38.986Z,82.10
2017-09-22T03:31:07.284Z,82.50
2017-09-22T03:33:34.843Z,82.40
2017-09-22T03:36:03.144Z,84.10
2017-09-22T03:38:30.675Z,83.50
2017-09-22T03:40:59.014Z,83.20
2017-09-22T03:43:26.544Z,83.20
2017-09-22T03:45:54.086Z,83.90
2017-09-22T03:48:21.651Z,83.40
2017-09-22T03:50:49.184Z,83.80
2017-09-22T03:53:17.483Z,83.20
2017-09-22T03:55:45.035Z,83.10
2017-09-22T03:58:14.256Z,83.00
2017-09-22T04:00:41.783Z,82.90
2017-09-22T04:03:10.147Z,83.00
2017-09-22T04:05:37.679Z,82.90
2017-09-22T04:08:05.213Z,82.60
2017-09-22T04:10:32.773Z,82.60
2017-09-22T04:13:00.304Z,82.80
2017-09-22T04:15:28.775Z,82.90
2017-09-22T04:17:57.103Z,82.40
2017-09-22T04:20:24.648Z,82.40
2017-09-22T04:22:52.180Z,82.40
2017-09-22T04:25:19.770Z,81.90
2017-09-22T04:27:47.301Z,82.10
2017-09-22T04:30:17.231Z,82.40
2017-09-22T04:32:44.881Z,82.40
2017-09-22T04:35:12.462Z,81.80
2017-09-22T04:37:39.996Z,81.70
2017-09-22T04:40:07.585Z,82.10
2017-09-22T04:42:35.119Z,82.50
2017-09-22T04:45:03.423Z,82.20
2017-09-22T04:47:31.007Z,82.20
2017-09-22T04:49:58.535Z,82.50
2017-09-22T04:52:26.064Z,82.80
2017-09-22T04:54:54.387Z,82.80
2017-09-22T04:57:21.910Z,82.50
2017-09-22T04:59:50.219Z,83.00
2017-09-22T05:02:17.776Z,83.00
2017-09-22T05:04:45.302Z,82.60
2017-09-22T05:07:14.565Z,82.30
2017-09-22T05:09:42.147Z,82.00
2017-09-22T05:12:09.684Z,82.00
2017-09-22T05:14:37.220Z,82.10
2017-09-22T05:17:05.485Z,82.10
2017-09-22T05:19:33.011Z,81.90
2017-09-22T05:22:01.316Z,80.60
2017-09-22T05:24:28.876Z,80.60
2017-09-22T05:26:56.408Z,80.20
2017-09-22T05:29:23.934Z,80.30
2017-09-22T05:31:51.518Z,80.90
2017-09-22T05:34:19.051Z,80.90
2017-09-22T05:36:46.579Z,81.10
2017-09-22T05:39:16.348Z,81.90
2017-09-22T05:41:43.875Z,81.80
2017-09-22T05:44:11.407Z,81.70
2017-09-22T05:46:38.983Z,82.20
2017-09-22T05:49:07.302Z,82.60
2017-09-22T05:51:34.852Z,82.60
2017-09-22T05:54:02.436Z,82.70
2017-09-22T05:56:29.968Z,82.90
2017-09-22T05:58:57.496Z,82.70
2017-09-22T06:01:25.046Z,82.70
2017-09-22T06:03:52.584Z,82.70
2017-09-22T06:06:20.115Z,82.50
2017-09-22T06:08:47.679Z,82.10
2017-09-22T06:11:17.227Z,81.90
2017-09-22T06:13:44.758Z,81.80
2017-09-22T06:16:14.031Z,81.00
2017-09-22T06:18:41.818Z,80.80
2017-09-22T06:21:09.340Z,80.90
2017-09-22T06:23:36.912Z,80.40
2017-09-22T06:26:04.449Z,80.10
2017-09-22T06:28:32.746Z,81.10
2017-09-22T06:31:00.302Z,81.10
2017-09-22T06:33:27.827Z,80.90
2017-09-22T06:35:55.359Z,81.70
2017-09-22T06:38:23.707Z,81.30
2017-09-22T06:40:51.238Z,81.20
2017-09-22T06:43:18.766Z,81.00
2017-09-22T06:45:46.350Z,82.00
2017-09-22T06:48:16.260Z,80.80
2017-09-22T06:50:43.791Z,80.80
2017-09-22T06:53:12.115Z,79.90
2017-09-22T06:55:39.640Z,79.90
2017-09-22T06:58:07.167Z,79.40
2017-09-22T07:00:34.739Z,78.00
2017-09-22T07:03:02.270Z,78.20
2017-09-22T07:05:29.811Z,75.20
2017-09-22T07:07:57.372Z,70.40
2017-09-22T07:10:24.911Z,65.80
2017-09-22T07:12:52.457Z,58.30
2017-09-22T07:15:20.034Z,54.20
2017-09-22T07:17:47.579Z,49.30
2017-09-22T07:20:16.829Z,44.30
2017-09-22T07:22:44.423Z,44.30
2017-09-22T07:25:11.959Z,42.00
2017-09-22T07:27:39.492Z,41.00
2017-09-22T07:30:07.052Z,39.70
2017-09-22T07:32:34.587Z,37.30
2017-09-22T07:35:02.120Z,35.80
2017-09-22T07:37:29.679Z,33.70
2017-09-22T07:39:57.219Z,33.60
2017-09-22T07:42:24.752Z,33.90
2017-09-22T07:44:52.335Z,33.30
2017-09-22T07:47:19.874Z,33.10
2017-09-22T07:49:47.410Z,31.20
2017-09-22T07:52:16.543Z,31.70
2017-09-22T07:54:44.076Z,30.80
2017-09-22T07:57:11.612Z,30.10
2017-09-22T07:59:39.176Z,31.80
2017-09-22T08:02:07.480Z,30.00
2017-09-22T08:04:35.015Z,29.90
2017-09-22T08:07:02.602Z,29.00
2017-09-22T08:09:30.131Z,28.70
2017-09-22T08:11:57.664Z,27.80
2017-09-22T08:14:25.224Z,28.40
2017-09-22T08:16:52.756Z,29.70
2017-09-22T08:19:20.291Z,32.30
2017-09-22T08:21:48.264Z,34.40
2017-09-22T08:24:16.192Z,34.50
2017-09-22T08:26:44.490Z,39.40
2017-09-22T08:29:12.094Z,39.40
2017-09-22T08:31:39.634Z,40.10
2017-09-22T08:34:07.162Z,42.30
2017-09-22T08:36:35.474Z,46.50
2017-09-22T08:39:03.003Z,46.40
2017-09-22T08:41:30.539Z,46.80
2017-09-22T08:43:58.099Z,47.80
2017-09-22T08:46:26.403Z,51.50
2017-09-22T08:48:53.933Z,50.90
2017-09-22T08:51:21.519Z,51.20
2017-09-22T08:53:49.812Z,51.50
2017-09-22T08:56:17.347Z,51.50
2017-09-22T08:58:45.704Z,53.90
2017-09-22T09:01:14.612Z,53.90
2017-09-22T09:03:42.175Z,54.30
2017-09-22T09:06:10.731Z,54.00
2017-09-22T09:08:38.270Z,54.00
2017-09-22T09:11:05.798Z,54.20
2017-09-22T09:13:33.716Z,54.50
2017-09-22T09:16:01.255Z,54.00
2017-09-22T09:18:28.787Z,54.50
2017-09-22T09:20:56.339Z,54.40
2017-09-22T09:23:24.121Z,54.50
2017-09-22T09:25:51.646Z,53.80
2017-09-22T09:28:19.968Z,52.80
2017-09-22T09:30:47.503Z,52.80
2017-09-22T09:33:16.453Z,51.90
2017-09-22T09:35:44.022Z,50.40
2017-09-22T09:38:11.587Z,50.40
2017-09-22T09:40:40.622Z,47.90
2017-09-22T09:43:08.189Z,47.90
2017-09-22T09:45:35.721Z,47.30
2017-09-22T09:48:03.330Z,45.60
2017-09-22T09:50:30.923Z,43.10
2017-09-22T09:52:58.508Z,44.10
2017-09-22T09:55:26.034Z,43.60
2017-09-22T09:57:53.819Z,44.00
2017-09-22T10:00:22.112Z,43.60
2017-09-22T10:02:49.639Z,43.60
2017-09-22T10:05:17.254Z,43.10
2017-09-22T10:07:44.779Z,42.80
2017-09-22T10:10:12.298Z,44.70
2017-09-22T10:12:39.899Z,44.10
2017-09-22T10:15:07.448Z,44.30
2017-09-22T10:17:35.761Z,44.10
2017-09-22T10:20:03.502Z,44.10
2017-09-22T10:22:31.036Z,44.10
2017-09-22T10:24:59.003Z,44.40
2017-09-22T10:27:26.570Z,43.30
2017-09-22T10:29:54.175Z,43.50
2017-09-22T10:32:21.759Z,44.60
2017-09-22T10:34:49.327Z,45.20
2017-09-22T10:37:16.863Z,45.00
2017-09-22T10:39:44.391Z,43.90
2017-09-22T10:42:12.311Z,44.20
2017-09-22T10:44:39.852Z,45.70
2017-09-22T10:47:07.379Z,46.60
2017-09-22T10:49:35.743Z,48.70
2017-09-22T10:52:03.274Z,48.70
2017-09-22T10:54:30.813Z,49.00
2017-09-22T10:56:58.376Z,49.80
2017-09-22T10:59:25.951Z,50.00
2017-09-22T11:01:53.527Z,50.20
2017-09-22T11:04:21.126Z,48.00
2017-09-22T11:06:48.667Z,48.50
2017-09-22T11:09:17.180Z,46.80
2017-09-22T11:11:44.776Z,46.80
2017-09-22T11:14:12.308Z,46.00
2017-09-22T11:16:39.831Z,44.10
2017-09-22T11:19:08.156Z,46.30
2017-09-22T11:21:35.683Z,46.20
2017-09-22T11:24:03.971Z,45.20
2017-09-22T11:26:32.786Z,45.10
2017-09-22T11:29:00.344Z,45.40
2017-09-22T11:31:27.388Z,44.30
2017-09-22T11:33:54.447Z,43.80
2017-09-22T11:36:21.983Z,43.00
2017-09-22T11:38:49.523Z,42.50
2017-09-22T11:41:17.095Z,44.00
2017-09-22T11:43:44.627Z,45.10
2017-09-22T11:46:13.856Z,46.10
2017-09-22T11:48:41.539Z,46.10
2017-09-22T11:51:09.115Z,47.60
2017-09-22T11:53:36.665Z,45.90
2017-09-22T11:56:04.224Z,47.20
2017-09-22T11:58:31.823Z,45.70
2017-09-22T12:00:59.361Z,46.70
2017-09-22T12:03:26.940Z,47.60
2017-09-22T12:05:54.481Z,47.80
2017-09-22T12:08:22.119Z,47.50
2017-09-22T12:10:50.007Z,45.80
2017-09-22T12:13:17.551Z,47.00
2017-09-22T12:15:45.082Z,47.30
2017-09-22T12:18:13.599Z,47.60
2017-09-22T12:20:41.131Z,46.50
2017-09-22T12:23:08.665Z,47.80
2017-09-22T12:25:37.177Z,47.90
2017-09-22T12:28:05.518Z,47.90
2017-09-22T12:30:33.835Z,47.40
2017-09-22T12:33:01.427Z,47.40
2017-09-22T12:35:28.963Z,48.00
2017-09-22T12:37:56.491Z,48.90
2017-09-22T12:40:24.052Z,47.90
2017-09-22T12:42:51.604Z,49.50
2017-09-22T12:45:19.951Z,50.70
2017-09-22T12:47:47.515Z,50.70
2017-09-22T12:50:17.395Z,51.30
2017-09-22T12:52:44.932Z,51.20
2017-09-22T12:55:12.511Z,51.00
2017-09-22T12:57:40.040Z,50.30
2017-09-22T13:00:08.344Z,50.40
2017-09-22T13:02:35.904Z,50.40
2017-09-22T13:05:03.431Z,52.70
2017-09-22T13:07:31.737Z,51.80
2017-09-22T13:09:59.316Z,51.80
2017-09-22T13:12:26.858Z,50.80
2017-09-22T13:14:55.010Z,52.70
2017-09-22T13:17:23.129Z,52.00
2017-09-22T13:19:50.883Z,50.20
2017-09-22T13:22:18.459Z,50.60
2017-09-22T13:24:48.772Z,49.00
2017-09-22T13:27:16.971Z,49.10
2017-09-22T13:29:44.792Z,48.90
2017-09-22T13:32:12.454Z,50.00
2017-09-22T13:34:40.855Z,48.60
2017-09-22T13:37:08.432Z,49.40
2017-09-22T13:39:36.751Z,49.30
2017-09-22T13:42:04.499Z,48.50
2017-09-22T13:44:32.054Z,49.60
2017-09-22T13:47:00.312Z,49.70
2017-09-22T13:49:27.849Z,50.10
2017-09-22T13:51:55.382Z,50.20
2017-09-22T13:54:24.385Z,48.90
2017-09-22T13:56:53.884Z,49.00
2017-09-22T13:59:22.196Z,49.10
2017-09-22T14:01:51.105Z,49.10
2017-09-22T14:04:20.500Z,49.40
2017-09-22T14:06:48.079Z,50.80
2017-09-22T14:09:18.180Z,50.30
2017-09-22T14:11:45.732Z,50.30
2017-09-22T14:14:16.803Z,50.60
2017-09-22T14:16:44.407Z,52.90
2017-09-22T14:19:11.961Z,52.60
2017-09-22T14:21:39.500Z,53.50
2017-09-22T14:24:08.365Z,53.30
2017-09-22T15:21:22.427Z,50.10
2017-09-22T15:23:51.535Z,50.80
2017-09-22T15:28:57.092Z,52.80
2017-09-22T15:31:27.018Z,52.20
2017-09-22T15:36:27.860Z,52.10
2017-09-22T15:38:55.837Z,52.40
2017-09-22T15:41:26.280Z,53.80
2017-09-22T15:43:53.872Z,54.40
2017-09-22T15:46:23.629Z,54.60
2017-09-22T15:48:53.639Z,53.20
2017-09-22T15:51:21.228Z,54.00
2017-09-22T15:53:49.556Z,53.90
2017-09-22T15:56:17.101Z,53.90
2017-09-22T15:58:44.714Z,54.80
2017-09-22T16:01:12.262Z,55.30
2017-09-22T16:03:39.822Z,54.90
2017-09-22T16:06:07.418Z,56.20
2017-09-22T16:08:34.969Z,55.70
2017-09-22T16:11:02.520Z,55.60
2017-09-22T16:13:30.128Z,56.00
2017-09-22T16:15:57.716Z,56.60
2017-09-22T16:18:25.285Z,56.90
2017-09-22T16:20:53.147Z,56.70
2017-09-22T16:23:21.488Z,57.80
2017-09-22T16:25:49.047Z,57.70
2017-09-22T16:28:20.124Z,58.50
2017-09-22T16:30:48.539Z,58.70
2017-09-22T16:33:18.736Z,59.10
2017-09-22T16:35:46.733Z,59.30
2017-09-22T16:38:24.491Z,59.80
2017-09-22T16:43:45.083Z,62.90
2017-09-22T16:46:12.631Z,62.80
2017-09-22T16:48:40.200Z,64.40
2017-09-22T16:51:07.795Z,64.70
2017-09-22T16:53:35.351Z,64.50
2017-09-22T16:56:03.667Z,64.50
2017-09-22T16:58:31.260Z,64.50
2017-09-22T17:00:58.808Z,64.50
2017-09-22T17:03:26.363Z,64.60
2017-09-22T17:05:53.969Z,64.70
2017-09-22T17:08:22.297Z,65.10
2017-09-22T17:10:49.843Z,65.00
2017-09-22T17:13:17.427Z,65.80
2017-09-22T17:15:45.000Z,65.50
2017-09-22T17:18:12.557Z,66.00
2017-09-22T17:20:40.135Z,66.70
2017-09-22T17:23:08.448Z,67.50
2017-09-22T17:25:36.003Z,67.40
2017-09-22T17:28:03.611Z,67.60
2017-09-22T17:30:31.143Z,67.10
2017-09-22T17:32:58.679Z,67.40
2017-09-22T17:35:26.240Z,67.40
2017-09-22T17:37:54.416Z,67.50
2017-09-22T17:40:21.955Z,68.20
2017-09-22T17:42:50.315Z,68.40
2017-09-22T17:45:18.183Z,68.90
2017-09-22T17:47:45.817Z,69.00
2017-09-22T17:50:15.446Z,69.70
2017-09-22T17:52:43.033Z,69.60
2017-09-22T17:55:10.613Z,69.40
2017-09-22T17:57:38.316Z,70.10
2017-09-22T18:00:05.889Z,70.00
2017-09-22T18:02:33.427Z,70.20
2017-09-22T18:05:01.007Z,70.60
2017-09-22T18:07:28.603Z,70.20
2017-09-22T18:09:56.156Z,69.90
2017-09-22T18:12:23.739Z,70.30
2017-09-22T18:14:51.396Z,70.70
2017-09-22T18:17:18.927Z,70.70
2017-09-22T18:19:46.526Z,70.00
2017-09-22T18:22:25.383Z,70.30
2017-09-22T18:29:42.172Z,71.00
2017-09-22T18:32:10.543Z,71.90
2017-09-22T18:34:38.860Z,72.10
2017-09-22T18:37:06.461Z,72.00
2017-09-22T18:39:35.812Z,72.40
2017-09-22T18:42:03.412Z,72.80
2017-09-22T18:44:31.093Z,73.00
2017-09-22T18:46:58.848Z,73.00
2017-09-22T18:49:26.397Z,73.30
2017-09-22T18:51:53.999Z,73.30
2017-09-22T18:54:21.640Z,73.70
2017-09-22T18:56:49.194Z,73.70
2017-09-22T18:59:20.620Z,73.70
2017-09-22T19:01:48.180Z,73.70
2017-09-22T19:04:17.386Z,74.20
2017-09-22T19:06:45.022Z,74.20
2017-09-22T19:09:12.572Z,74.10
2017-09-22T19:11:40.112Z,74.30
2017-09-22T19:14:07.704Z,74.60
2017-09-22T19:16:35.437Z,75.30
2017-09-22T19:19:02.995Z,75.30
2017-09-22T19:21:30.589Z,75.20
2017-09-22T19:23:58.234Z,75.50
2017-09-22T19:26:25.775Z,75.70
2017-09-22T19:28:53.355Z,75.30
2017-09-22T19:31:20.896Z,75.30
2017-09-22T19:33:48.525Z,75.70
2017-09-22T19:36:16.684Z,75.70
2017-09-22T19:38:44.272Z,75.60
2017-09-22T19:41:12.405Z,75.70
2017-09-22T19:43:39.963Z,75.90
2017-09-22T19:46:07.518Z,75.90
2017-09-22T19:48:35.060Z,76.10
2017-09-22T19:51:02.810Z,76.40
2017-09-22T19:53:31.107Z,76.90
2017-09-22T19:55:58.682Z,76.90
2017-09-22T19:58:26.267Z,76.40
2017-09-22T20:00:53.855Z,76.20
2017-09-22T20:03:21.544Z,76.30
2017-09-22T20:05:49.107Z,76.40
2017-09-22T20:08:16.638Z,76.30
2017-09-22T20:10:44.216Z,76.40
2017-09-22T20:13:12.564Z,76.70
2017-09-22T20:15:40.189Z,76.60
2017-09-22T20:18:07.828Z,76.50
2017-09-22T20:20:35.423Z,76.70
2017-09-22T20:23:03.045Z,76.80
2017-09-22T20:25:30.583Z,77.10
2017-09-22T20:27:58.195Z,77.30
2017-09-22T20:30:25.739Z,77.20
2017-09-22T20:32:53.348Z,77.00
2017-09-22T20:35:20.960Z,77.10
2017-09-22T20:37:48.494Z,77.00
2017-09-22T20:40:17.328Z,76.60
2017-09-22T20:42:46.803Z,76.80
2017-09-22T20:45:16.331Z,76.70
2017-09-22T20:47:44.035Z,76.70
2017-09-22T20:50:11.616Z,77.00
2017-09-22T20:52:39.168Z,77.20
2017-09-22T20:55:06.840Z,77.40
2017-09-22T20:57:34.440Z,77.50
2017-09-22T21:00:02.745Z,77.70
2017-09-22T21:02:30.287Z,77.70
2017-09-22T21:04:57.871Z,77.50
2017-09-22T21:07:25.415Z,77.60
2017-09-22T21:09:52.952Z,77.70
2017-09-22T21:12:21.304Z,77.70
2017-09-22T21:14:48.834Z,77.60
2017-09-22T21:17:16.504Z,77.60
2017-09-22T21:19:44.067Z,77.50
2017-09-22T21:22:11.604Z,77.80
2017-09-22T21:24:39.134Z,77.80
2017-09-22T21:27:06.983Z,77.90
2017-09-22T21:29:34.528Z,77.50
2017-09-22T21:32:02.884Z,78.20
2017-09-22T21:34:30.509Z,78.20
2017-09-22T21:36:58.095Z,78.20
2017-09-22T21:39:25.684Z,78.10
2017-09-22T21:41:54.043Z,78.00
2017-09-22T21:44:22.041Z,77.90
2017-09-22T21:46:49.643Z,78.00
2017-09-22T21:49:17.293Z,78.00
2017-09-22T21:51:44.839Z,78.20
2017-09-22T21:54:12.374Z,77.80
2017-09-22T21:56:40.081Z,77.90
2017-09-22T21:59:07.611Z,78.10
2017-09-22T22:01:35.151Z,77.90
2017-09-22T22:04:09.136Z,78.50
2017-09-22T22:09:42.556Z,78.70
2017-09-22T22:12:10.091Z,78.50
2017-09-22T22:14:37.628Z,78.40
2017-09-22T22:17:05.191Z,79.20
2017-09-22T22:19:32.730Z,78.80
2017-09-22T22:22:00.271Z,78.80
2017-09-22T22:24:27.839Z,78.30
2017-09-22T22:26:55.380Z,78.00
2017-09-22T22:29:22.974Z,78.10
2017-09-22T22:31:51.347Z,78.10
2017-09-22T22:34:19.646Z,77.80
2017-09-22T22:39:41.725Z,77.90
2017-09-22T22:42:09.279Z,77.90
2017-09-22T22:44:37.415Z,78.90
2017-09-22T22:47:05.720Z,78.70
2017-09-22T22:49:33.319Z,78.70
2017-09-22T22:52:00.873Z,79.00
2017-09-22T22:54:28.421Z,78.90
2017-09-22T22:56:55.996Z,78.80
2017-09-22T22:59:23.568Z,78.50
2017-09-22T23:01:51.094Z,78.70
2017-09-22T23:04:18.690Z,78.80
2017-09-22T23:06:46.224Z,78.50
2017-09-22T23:09:24.650Z,78.60
2017-09-22T23:15:00.629Z,78.60
2017-09-22T23:17:28.154Z,80.70
2017-09-22T23:19:55.675Z,80.20
2017-09-22T23:22:24.022Z,80.50
2017-09-22T23:24:51.556Z,80.30
2017-09-22T23:27:19.099Z,80.40
2017-09-22T23:29:46.686Z,80.50
2017-09-22T23:32:15.467Z,80.60
2017-09-22T23:34:43.008Z,80.60
2017-09-22T23:37:10.580Z,80.40
2017-09-22T23:39:38.113Z,80.10
2017-09-22T23:42:06.410Z,80.40
2017-09-22T23:44:33.974Z,80.30
2017-09-22T23:47:01.919Z,80.50
2017-09-22T23:49:29.464Z,80.40
2017-09-22T23:51:57.823Z,80.70
2017-09-22T23:54:26.127Z,81.00
2017-09-22T23:56:53.656Z,80.30
2017-09-22T23:59:21.933Z,80.20
